»·PEaware :: N3525K KIFP-KLAS

N3525K :: KIFP-KLAS

FLIGHT INFORMATION

Flight Status: Arrived
Operator: Privately registered:
United States
More flights under this callsign
Pilot: Anonymous 31142 (31142)
Aircraft: CESSNA 172 SKYHAWK
(C172)
More flights by this aircraft type
Origin: KIFP Laughlin/Bullhead Intl
United States
Destination: KLAS McCarran Intl
United States
More flights between these airports :: More routes between these airports
Route:
File this flight plan on PilotEdge
Remarks:
Altitude:
(Current/Filed)
8,500ft
Speed:
(Current/Filed)
120kts
Departed: 28-Aug-20 07:04 PM
Arrived: 28-Aug-20 07:44 PM
Distance/Time
Traveled:
63nm/0:40
Distance/Time
To Go:
Arrived

Flight Plot

Page will automatically refresh every two minutes.


Map Options




Map Legend


Flown Route
Filed Route
Departure Airport
Arrival Airport
Navaid (VOR, NDB)
Fix

Horizontal Profiles

Position Reports

Time Latitude Longitude Heading Altitude Ground
Speed
28-Aug-20 18:49 35.158610 -114.556019 266 705ft 0kts
28-Aug-20 18:50 35.158610 -114.556020 266 705ft 0kts
28-Aug-20 18:51 35.158610 -114.556020 266 705ft 0kts
28-Aug-20 18:52 35.158610 -114.556020 266 705ft 0kts
28-Aug-20 18:53 35.158610 -114.556020 266 705ft 0kts
28-Aug-20 18:54 35.158610 -114.556020 266 705ft 0kts
28-Aug-20 18:55 35.158610 -114.556020 266 705ft 0kts
28-Aug-20 18:56 35.158610 -114.556020 266 705ft 0kts
28-Aug-20 18:57 35.159524 -114.557004 283 705ft 7kts
28-Aug-20 18:58 35.161457 -114.558458 356 705ft 18kts
28-Aug-20 18:59 35.166191 -114.559197 281 705ft 0kts
28-Aug-20 19:00 35.166191 -114.559197 281 705ft 0kts
28-Aug-20 19:01 35.166191 -114.559197 281 705ft 0kts
28-Aug-20 19:02 35.166191 -114.559197 281 705ft 0kts
28-Aug-20 19:03 35.162828 -114.559967 175 705ft 67kts
28-Aug-20 19:04 35.142233 -114.561583 179 1539ft 75kts
28-Aug-20 19:05 35.143212 -114.578773 334 2389ft 75kts
28-Aug-20 19:06 35.163272 -114.586920 336 3176ft 77kts
28-Aug-20 19:07 35.182609 -114.597805 337 3916ft 78kts
28-Aug-20 19:08 35.202123 -114.609415 336 4616ft 78kts
28-Aug-20 19:09 35.222131 -114.620251 332 5275ft 79kts
28-Aug-20 19:10 35.241815 -114.632159 331 5901ft 80kts
28-Aug-20 19:11 35.261735 -114.644898 327 6487ft 82kts
28-Aug-20 19:12 35.281323 -114.658566 334 7063ft 80kts
28-Aug-20 19:13 35.302600 -114.667506 331 7577ft 82kts
28-Aug-20 19:14 35.322599 -114.681162 333 8088ft 82kts
28-Aug-20 19:15 35.342680 -114.694817 329 8568ft 82kts
28-Aug-20 19:16 35.364017 -114.707568 333 8867ft 102kts
28-Aug-20 19:17 35.393428 -114.724925 334 8923ft 125kts
28-Aug-20 19:18 35.424844 -114.742641 331 9113ft 120kts
28-Aug-20 19:19 35.457369 -114.762346 333 8856ft 138kts
28-Aug-20 19:20 35.491353 -114.783114 334 8620ft 141kts
28-Aug-20 19:21 35.524628 -114.804750 334 8587ft 131kts
28-Aug-20 19:22 35.556255 -114.827127 330 8580ft 131kts
28-Aug-20 19:23 35.587338 -114.849478 330 8631ft 129kts
28-Aug-20 19:24 35.619679 -114.868211 332 8576ft 136kts
28-Aug-20 19:25 35.651225 -114.890510 329 8643ft 129kts
28-Aug-20 19:26 35.683026 -114.912052 336 8199ft 134kts
28-Aug-20 19:27 35.715882 -114.931400 331 7355ft 135kts
28-Aug-20 19:28 35.747834 -114.951977 334 7597ft 124kts
28-Aug-20 19:29 35.780322 -114.970550 332 7437ft 134kts
28-Aug-20 19:30 35.811524 -114.995560 326 7137ft 140kts
28-Aug-20 19:31 35.842809 -115.017382 329 6637ft 124kts
28-Aug-20 19:32 35.873907 -115.037930 336 6317ft 133kts
28-Aug-20 19:33 35.908331 -115.049256 336 5974ft 122kts
28-Aug-20 19:34 35.929492 -115.081824 308 5660ft 128kts
28-Aug-20 19:35 35.953328 -115.114692 314 5727ft 129kts
28-Aug-20 19:36 35.979557 -115.146184 314 5710ft 130kts
28-Aug-20 19:37 36.004662 -115.178274 312 5785ft 129kts
28-Aug-20 19:38 36.036255 -115.179907 33 5003ft 134kts
28-Aug-20 19:39 36.067311 -115.157248 27 4056ft 134kts
28-Aug-20 19:40 36.097497 -115.136981 37 2960ft 111kts
28-Aug-20 19:41 36.117672 -115.141612 276 2900ft 85kts
28-Aug-20 19:42 36.099760 -115.156340 205 2156ft 79kts
28-Aug-20 19:43 36.089562 -115.162446 228 2125ft 21kts

Navigation Log

Ident Type
Flight plan parsing failed, navigation log unavailable